Terminal Aerodrome Forecast
Issued by NWS Charleston, WV

Current Version | Previous Version | Graphics & Text | Print | Product List | Glossary On
Versions: 1 2 3 4 5 6 7 8 9 10 11 12 13 14 15 16 17 18 19 20 21 22 23 24 25 26
000
FTUS41 KRLX 301139
TAFBKW
TAF
KBKW 301139Z 3012/3112 15006KT P6SM BKN070
     FM301500 20005KT P6SM BKN030
     FM301800 20005KT P6SM VCTS BKN030CB
     FM302100 20006KT P6SM BKN035
     FM310000 17006KT P6SM SCT040
     FM311100 19006KT P6SM BKN040=

USA.gov is the U.S. government's official web portal to all federal, state and local government web resources and services.